Flight Track Log - Related Links

Times and Time Zones

All times are in EST time to prevent confusion due to time zone crossing. See the AMF1324 flight status page for this flight to view local times or setup timezone preferences in your user account.

Time Position Orientation Groundspeed Altitude Reporting Facility
EST Latitude Longitude Course Direction KTS MPH feet Rate Location/Type
Fri 06:33:41 AM 42.8847 -78.5958 109° East 179 206 11,000  Level Cleveland Center
Fri 06:34:42 AM 42.8681 -78.5303 109° East 185 213 5,500 -2,164 Descending Cleveland Center
Fri 06:35:43 AM 42.8483 -78.4617 111° Southeast 187 215 6,600 1,073 Climbing Cleveland Center
Fri 06:36:45 AM 42.8347 -78.3875 104° East 195 224 7,700 1,024 Climbing Cleveland Center
Fri 06:37:46 AM 42.8161 -78.3239 112° Southeast 188 216 8,700 639 Climbing Cleveland Center
Fri 06:38:47 AM 42.7969 -78.2481 109° East 206 237 9,000 178 Climbing Cleveland Center
Fri 06:39:27 AM 42.7842 -78.1961 109° East 223 257 9,000  Level Cleveland Center
Fri 06:39:48 AM 42.7775 -78.1672 107° East 214 246 9,000  Level Cleveland Center
Fri 06:40:21 AM 42.7667 -78.1281 111° Southeast 214 246 9,000 -98 Level Cleveland Center
Fri 06:40:49 AM 42.7575 -78.0853 106° East 218 251 8,900  Descending Cleveland Center
Fri 06:41:22 AM 42.7486 -78.0481 108° East 220 253 9,000  Climbing Cleveland Center
Fri 06:41:50 AM 42.7400 -78.0094 107° East 219 252 8,900  Descending Cleveland Center
Fri 06:42:28 AM 42.7286 -77.9533 105° East 222 255 9,000 97 Climbing Cleveland Center
Fri 06:42:52 AM 42.7203 -77.9253 112° Southeast 223 257 9,000  Level Cleveland Center
Fri 06:43:29 AM 42.7064 -77.8725 110° East 224 258 9,000  Level Cleveland Center
Fri 06:43:53 AM 42.7008 -77.8489 108° East 220 253 9,000 -109 Level Cleveland Center
Fri 06:44:24 AM 42.6886 -77.8044 110° East 221 254 8,900  Descending Cleveland Center
Fri 06:44:54 AM 42.6789 -77.7636 108° East 218 251 9,000 100 Climbing Cleveland Center
Fri 06:45:24 AM 42.6683 -77.7242 110° East 220 253 9,000  Level Cleveland Center
Fri 06:45:55 AM 42.6603 -77.6856 106° East 218 251 9,000  Level Cleveland Center
Fri 06:46:31 AM 42.6467 -77.6381 111° Southeast 209 241 9,000  Level Cleveland Center
Fri 06:46:57 AM 42.6414 -77.6094 104° East 215 247 9,000  Level Cleveland Center
Fri 06:47:58 AM 42.6203 -77.5336 111° Southeast 215 247 9,000  Level Cleveland Center
Fri 06:48:59 AM 42.6008 -77.4569 109° East 216 249 9,000  Level Cleveland Center
Fri 06:50:01 AM 42.5806 -77.3756 109° East 216 249 9,000  Level Cleveland Center
Fri 06:51:02 AM 42.5608 -77.2983 109° East 216 249 9,000  Level Cleveland Center
Fri 06:52:04 AM 42.5408 -77.2225 110° East 214 246 9,000  Level Cleveland Center
Fri 06:53:05 AM 42.5211 -77.1467 109° East 213 245 9,000 49 Level Cleveland Center
Fri 06:54:07 AM 42.5025 -77.0714 109° East 212 244 9,100 49 Climbing Cleveland Center
Fri 06:55:08 AM 42.4822 -76.9964 110° East 213 245 9,100  Level Cleveland Center
Fri 06:56:09 AM 42.4639 -76.9197 108° East 214 246 9,100  Level Cleveland Center
Fri 06:57:11 AM 42.4408 -76.8292 109° East 212 244 9,100  Level Cleveland Center
Fri 06:58:08 AM 42.4239 -76.7647 110° East 215 247 9,100 -51 Level New York Center
Fri 06:59:08 AM 42.4047 -76.6900 109° East 210 242 9,000  Descending New York Center
Fri 07:00:08 AM 42.4233 -76.6075 73° East 210 242 9,100 50 Climbing New York Center
Fri 07:01:08 AM 42.4419 -76.5219 74° East 221 254 9,100 -50 Level New York Center
Fri 07:02:08 AM 42.4644 -76.4425 69° East 221 254 9,000 -500 Descending New York Center
Fri 07:03:08 AM 42.4686 -76.3558 86° East 221 254 8,100 -1,000 Descending New York Center
Fri 07:04:08 AM 42.4539 -76.2675 103° East 221 254 7,000 -950 Descending New York Center
Fri 07:05:08 AM 42.4264 -76.1864 115° Southeast 231 266 6,200 -950 Descending New York Center
Fri 07:06:08 AM 42.3900 -76.1217 127° Southeast 226 260 5,100 -950 Descending New York Center
Fri 07:07:08 AM 42.3375 -76.0836 152° Southeast 210 242 4,300 -550 Descending New York Center
Fri 07:08:08 AM 42.2931 -76.0519 152° Southeast 184 212 4,000 -600 Descending New York Center
Fri 07:09:08 AM 42.2592 -76.0214 146° Southeast 163 188 3,100 -750 Descending New York Center
Fri 07:10:08 AM 42.2247 -75.9989 154° Southeast 157 181 2,500 -600 Descending New York Center

Login

Don't have an account? Register now (free) for customized features, flight alerts, and more!